CYLK

Lutselk'e Airport

Lutselk'e, Northwest Territories, Canada
METAR CYLK 200100Z 06009KT 15SM OVC082 M17/M21 A2972 RMK AC8 -15.5/-17.7/0/24.2 SNW CVR/MUCH LOOSE LAST STFD OBS/NEXT 201600Z SLP087
Observed Flight Rules
Jan-20 @ 01:00 UTC (12 hours ago) Visual Flight Rules
Wind Visibility Clouds
60° at 9 knots 15 miles
  • Overcast at 8,200' AGL
Temperatures Readings
Current -17°C / 1°F
Dewpoint -21°C / -6°F
Humidity 71%
Altimeter 29.72" Hg
Pressure 1008.7 hPa
Elevation 179
METAR CYLK 200100Z 06009KT 15SM OVC082 M17/M21 A2972 RMK AC8 -15.5/-17.7/0/24.2 SNW CVR/MUCH LOOSE LAST STFD OBS/NEXT 201600Z SLP087
Observed Flight Rules
Jan-20 @ 01:00 UTC
(12 hours ago)
VFR
Wind Visibility
60° at 9 knots 15 miles
Clouds
  • Overcast at 8,200' AGL
Temperature Dewpoint
-17°C / 1°F -21°C / -6°F
Humidity Altimeter Pressure
71% 29.72" Hg 1008.7 hPa